sensor_id;sensor_type;location;lat;lon;timestamp;pressure;altitude;pressure_sealevel;temperature;humidity
26697;BME280;14312;52.614;13.496;2022-09-09T00:00:49;100383.16;;;22.24;56.33
26697;BME280;14312;52.614;13.496;2022-09-09T00:03:54;100372.63;;;22.23;56.32
26697;BME280;14312;52.614;13.496;2022-09-09T00:07:03;100378.38;;;22.21;56.51
26697;BME280;14312;52.614;13.496;2022-09-09T00:09:59;100374.69;;;22.17;56.51
26697;BME280;14312;52.614;13.496;2022-09-09T00:15:51;100371.06;;;22.13;56.52
26697;BME280;14312;52.614;13.496;2022-09-09T00:21:37;100368.53;;;22.08;56.07
26697;BME280;14312;52.614;13.496;2022-09-09T00:24:32;100362.28;;;22.08;56.52
26697;BME280;14312;52.614;13.496;2022-09-09T00:27:31;100365.31;;;22.06;56.51
26697;BME280;14312;52.614;13.496;2022-09-09T00:30:24;100361.34;;;22.04;56.25
26697;BME280;14312;52.614;13.496;2022-09-09T00:33:12;100364.38;;;22.02;56.23
26697;BME280;14312;52.614;13.496;2022-09-09T00:36:00;100367.25;;;21.97;56.25
26697;BME280;14312;52.614;13.496;2022-09-09T00:38:52;100362.63;;;21.98;56.31
26697;BME280;14312;52.614;13.496;2022-09-09T00:42:06;100363.41;;;21.98;56.47
26697;BME280;14312;52.614;13.496;2022-09-09T00:45:19;100354.81;;;21.96;56.38
26697;BME280;14312;52.614;13.496;2022-09-09T00:48:13;100358.47;;;21.92;56.08
26697;BME280;14312;52.614;13.496;2022-09-09T00:51:22;100366.28;;;21.93;56.41
26697;BME280;14312;52.614;13.496;2022-09-09T00:54:31;100355.25;;;21.89;56.35
26697;BME280;14312;52.614;13.496;2022-09-09T00:57:28;100367.56;;;21.87;56.43
26697;BME280;14312;52.614;13.496;2022-09-09T01:03:34;100370.59;;;21.85;56.44
26697;BME280;14312;52.614;13.496;2022-09-09T01:06:31;100370.44;;;21.82;56.37
26697;BME280;14312;52.614;13.496;2022-09-09T01:09:22;100380.84;;;21.80;56.27
26697;BME280;14312;52.614;13.496;2022-09-09T01:12:28;100379.72;;;21.81;56.21
26697;BME280;14312;52.614;13.496;2022-09-09T01:15:22;100374.91;;;21.78;56.34
26697;BME280;14312;52.614;13.496;2022-09-09T01:18:12;100373.31;;;21.77;56.10
26697;BME280;14312;52.614;13.496;2022-09-09T01:21:03;100373.97;;;21.74;56.03
26697;BME280;14312;52.614;13.496;2022-09-09T01:24:01;100365.34;;;21.72;55.96
26697;BME280;14312;52.614;13.496;2022-09-09T01:26:52;100378.91;;;21.72;55.85
26697;BME280;14312;52.614;13.496;2022-09-09T01:29:42;100384.97;;;21.69;55.80
26697;BME280;14312;52.614;13.496;2022-09-09T01:32:39;100373.81;;;21.70;55.89
26697;BME280;14312;52.614;13.496;2022-09-09T01:35:49;100371.41;;;21.69;55.86
26697;BME280;14312;52.614;13.496;2022-09-09T01:38:36;100371.25;;;21.65;55.78
26697;BME280;14312;52.614;13.496;2022-09-09T01:41:22;100369.66;;;21.64;55.77
26697;BME280;14312;52.614;13.496;2022-09-09T01:44:09;100374.28;;;21.64;55.57
26697;BME280;14312;52.614;13.496;2022-09-09T01:46:55;100373.00;;;21.61;55.78
26697;BME280;14312;52.614;13.496;2022-09-09T01:49:41;100372.22;;;21.61;55.60
26697;BME280;14312;52.614;13.496;2022-09-09T01:52:27;100376.06;;;21.60;55.49
26697;BME280;14312;52.614;13.496;2022-09-09T01:55:13;100374.78;;;21.57;55.48
26697;BME280;14312;52.614;13.496;2022-09-09T02:01:18;100370.78;;;21.55;55.56
26697;BME280;14312;52.614;13.496;2022-09-09T02:04:34;100373.03;;;21.53;55.39
26697;BME280;14312;52.614;13.496;2022-09-09T02:07:38;100382.28;;;21.52;55.51
26697;BME280;14312;52.614;13.496;2022-09-09T02:10:31;100376.69;;;21.48;55.46
26697;BME280;14312;52.614;13.496;2022-09-09T02:13:20;100380.03;;;21.45;55.65
26697;BME280;14312;52.614;13.496;2022-09-09T02:16:10;100380.34;;;21.43;55.27
26697;BME280;14312;52.614;13.496;2022-09-09T02:19:14;100390.72;;;21.41;55.33
26697;BME280;14312;52.614;13.496;2022-09-09T02:22:03;100387.06;;;21.37;55.28
26697;BME280;14312;52.614;13.496;2022-09-09T02:24:50;100385.47;;;21.36;55.31
26697;BME280;14312;52.614;13.496;2022-09-09T02:27:43;100383.84;;;21.35;55.16
26697;BME280;14312;52.614;13.496;2022-09-09T02:30:30;100390.69;;;21.33;54.99
26697;BME280;14312;52.614;13.496;2022-09-09T02:33:20;100392.16;;;21.30;55.04
26697;BME280;14312;52.614;13.496;2022-09-09T02:36:09;100386.72;;;21.30;55.43
26697;BME280;14312;52.614;13.496;2022-09-09T02:38:56;100391.16;;;21.26;55.36
26697;BME280;14312;52.614;13.496;2022-09-09T02:41:42;100388.00;;;21.24;55.44
26697;BME280;14312;52.614;13.496;2022-09-09T02:44:28;100381.28;;;21.22;55.35
26697;BME280;14312;52.614;13.496;2022-09-09T02:50:34;100385.59;;;21.23;55.61
26697;BME280;14312;52.614;13.496;2022-09-09T02:53:31;100382.72;;;21.19;55.53
26697;BME280;14312;52.614;13.496;2022-09-09T02:56:23;100387.66;;;21.17;55.51
26697;BME280;14312;52.614;13.496;2022-09-09T02:59:11;100378.53;;;21.13;55.49
26697;BME280;14312;52.614;13.496;2022-09-09T03:01:57;100386.66;;;21.13;55.48
26697;BME280;14312;52.614;13.496;2022-09-09T03:04:43;100384.25;;;21.11;55.31
26697;BME280;14312;52.614;13.496;2022-09-09T03:07:30;100381.88;;;21.10;55.41
26697;BME280;14312;52.614;13.496;2022-09-09T03:10:16;100385.72;;;21.09;55.44
26697;BME280;14312;52.614;13.496;2022-09-09T03:13:03;100394.94;;;21.08;55.30
26697;BME280;14312;52.614;13.496;2022-09-09T03:15:50;100386.31;;;21.06;55.20
26697;BME280;14312;52.614;13.496;2022-09-09T03:18:37;100384.72;;;21.05;55.46
26697;BME280;14312;52.614;13.496;2022-09-09T03:21:23;100388.53;;;21.04;55.16
26697;BME280;14312;52.614;13.496;2022-09-09T03:24:08;100393.50;;;21.02;55.41
26697;BME280;14312;52.614;13.496;2022-09-09T03:26:55;100394.63;;;21.01;55.08
26697;BME280;14312;52.614;13.496;2022-09-09T03:29:41;100410.38;;;20.99;55.20
26697;BME280;14312;52.614;13.496;2022-09-09T03:32:27;100407.66;;;20.99;55.26
26697;BME280;14312;52.614;13.496;2022-09-09T03:35:13;100401.75;;;20.97;55.18
26697;BME280;14312;52.614;13.496;2022-09-09T03:37:58;100406.72;;;20.95;55.12
26697;BME280;14312;52.614;13.496;2022-09-09T03:40:50;100401.28;;;20.95;54.81
26697;BME280;14312;52.614;13.496;2022-09-09T03:43:36;100403.81;;;20.91;55.00
26697;BME280;14312;52.614;13.496;2022-09-09T03:46:24;100416.56;;;20.91;55.28
26697;BME280;14312;52.614;13.496;2022-09-09T03:49:10;100412.59;;;20.88;55.22
26697;BME280;14312;52.614;13.496;2022-09-09T03:51:56;100410.19;;;20.87;55.19
26697;BME280;14312;52.614;13.496;2022-09-09T03:54:43;100419.44;;;20.86;55.37
26697;BME280;14312;52.614;13.496;2022-09-09T03:57:29;100417.81;;;20.85;55.44
26697;BME280;14312;52.614;13.496;2022-09-09T04:00:15;100417.31;;;20.83;55.31
26697;BME280;14312;52.614;13.496;2022-09-09T04:03:01;100416.88;;;20.81;55.30
26697;BME280;14312;52.614;13.496;2022-09-09T04:05:51;100419.22;;;20.82;55.50
26697;BME280;14312;52.614;13.496;2022-09-09T04:08:37;100419.06;;;20.79;55.44
26697;BME280;14312;52.614;13.496;2022-09-09T04:11:23;100424.50;;;20.79;55.47
26697;BME280;14312;52.614;13.496;2022-09-09T04:14:09;100415.88;;;20.77;55.19
26697;BME280;14312;52.614;13.496;2022-09-09T04:16:55;100408.84;;;20.76;55.29
26697;BME280;14312;52.614;13.496;2022-09-09T04:19:42;100408.84;;;20.76;55.42
26697;BME280;14312;52.614;13.496;2022-09-09T04:22:28;100401.38;;;20.73;55.43
26697;BME280;14312;52.614;13.496;2022-09-09T04:25:14;100406.78;;;20.73;55.34
26697;BME280;14312;52.614;13.496;2022-09-09T04:28:00;100407.91;;;20.71;55.23
26697;BME280;14312;52.614;13.496;2022-09-09T04:30:46;100420.94;;;20.69;55.14
26697;BME280;14312;52.614;13.496;2022-09-09T04:33:32;100408.50;;;20.68;55.51
26697;BME280;14312;52.614;13.496;2022-09-09T04:36:18;100412.31;;;20.67;55.28
26697;BME280;14312;52.614;13.496;2022-09-09T04:39:05;100419.19;;;20.65;55.06
26697;BME280;14312;52.614;13.496;2022-09-09T04:41:50;100422.19;;;20.63;55.08
26697;BME280;14312;52.614;13.496;2022-09-09T04:44:36;100427.91;;;20.62;54.80
26697;BME280;14312;52.614;13.496;2022-09-09T04:47:22;100417.41;;;20.60;55.20
26697;BME280;14312;52.614;13.496;2022-09-09T04:50:08;100430.47;;;20.58;54.91
26697;BME280;14312;52.614;13.496;2022-09-09T04:52:54;100432.69;;;20.56;55.36
26697;BME280;14312;52.614;13.496;2022-09-09T04:55:40;100434.28;;;20.57;55.08
26697;BME280;14312;52.614;13.496;2022-09-09T04:58:25;100441.91;;;20.55;55.13
26697;BME280;14312;52.614;13.496;2022-09-09T05:01:17;100444.31;;;20.57;55.42
26697;BME280;14312;52.614;13.496;2022-09-09T05:04:03;100438.69;;;20.53;55.33
26697;BME280;14312;52.614;13.496;2022-09-09T05:06:49;100440.94;;;20.51;55.51
26697;BME280;14312;52.614;13.496;2022-09-09T05:09:35;100446.34;;;20.51;55.79
26697;BME280;14312;52.614;13.496;2022-09-09T05:12:21;100446.34;;;20.51;55.79
26697;BME280;14312;52.614;13.496;2022-09-09T05:15:09;100458.78;;;20.52;55.58
26697;BME280;14312;52.614;13.496;2022-09-09T05:17:59;100453.84;;;20.54;55.90
26697;BME280;14312;52.614;13.496;2022-09-09T05:20:46;100450.66;;;20.52;55.59
26697;BME280;14312;52.614;13.496;2022-09-09T05:23:35;100448.44;;;20.54;55.83
26697;BME280;14312;52.614;13.496;2022-09-09T05:26:22;100443.00;;;20.54;55.87
26697;BME280;14312;52.614;13.496;2022-09-09T05:29:08;100451.13;;;20.54;55.84
26697;BME280;14312;52.614;13.496;2022-09-09T05:31:54;100451.94;;;20.55;55.84
26697;BME280;14312;52.614;13.496;2022-09-09T05:34:39;100453.03;;;20.54;55.78
26697;BME280;14312;52.614;13.496;2022-09-09T05:37:25;100443.00;;;20.54;55.80
26697;BME280;14312;52.614;13.496;2022-09-09T05:40:11;100451.13;;;20.54;56.02
26697;BME280;14312;52.614;13.496;2022-09-09T05:42:59;100454.34;;;20.56;56.00
26697;BME280;14312;52.614;13.496;2022-09-09T05:45:46;100445.72;;;20.54;56.48
26697;BME280;14312;52.614;13.496;2022-09-09T05:48:37;100457.03;;;20.56;56.69
26697;BME280;14312;52.614;13.496;2022-09-09T05:51:25;100450.03;;;20.55;56.61
26697;BME280;14312;52.614;13.496;2022-09-09T05:54:12;100451.63;;;20.56;56.78
26697;BME280;14312;52.614;13.496;2022-09-09T05:57:00;100455.94;;;20.57;57.14
26697;BME280;14312;52.614;13.496;2022-09-09T05:59:46;100453.72;;;20.59;57.04
26697;BME280;14312;52.614;13.496;2022-09-09T06:02:32;100450.06;;;20.64;57.17
26697;BME280;14312;52.614;13.496;2022-09-09T06:05:19;100459.50;;;20.66;57.08
26697;BME280;14312;52.614;13.496;2022-09-09T06:08:04;100454.25;;;20.70;57.25
26697;BME280;14312;52.614;13.496;2022-09-09T06:10:50;100450.63;;;20.75;57.46
26697;BME280;14312;52.614;13.496;2022-09-09T06:13:38;100461.31;;;20.80;57.25
26697;BME280;14312;52.614;13.496;2022-09-09T06:16:26;100465.78;;;20.84;57.43
26697;BME280;14312;52.614;13.496;2022-09-09T06:19:12;100468.97;;;20.86;57.28
26697;BME280;14312;52.614;13.496;2022-09-09T06:21:58;100472.34;;;20.92;57.27
26697;BME280;14312;52.614;13.496;2022-09-09T06:24:44;100466.31;;;20.95;57.32
26697;BME280;14312;52.614;13.496;2022-09-09T06:27:30;100470.63;;;20.96;57.38
26697;BME280;14312;52.614;13.496;2022-09-09T06:30:16;100474.91;;;20.97;57.35
26697;BME280;14312;52.614;13.496;2022-09-09T06:33:02;100477.00;;;21.00;57.36
26697;BME280;14312;52.614;13.496;2022-09-09T06:35:52;100475.25;;;21.04;57.55
26697;BME280;14312;52.614;13.496;2022-09-09T06:38:38;100473.69;;;21.03;57.56
26697;BME280;14312;52.614;13.496;2022-09-09T06:41:27;100470.81;;;21.08;57.56
26697;BME280;14312;52.614;13.496;2022-09-09T06:44:13;100469.22;;;21.07;57.43
26697;BME280;14312;52.614;13.496;2022-09-09T06:47:00;100472.88;;;21.11;57.69
26697;BME280;14312;52.614;13.496;2022-09-09T06:49:46;100471.16;;;21.15;57.66
26697;BME280;14312;52.614;13.496;2022-09-09T06:52:32;100486.81;;;21.18;57.37
26697;BME280;14312;52.614;13.496;2022-09-09T06:55:19;100488.41;;;21.19;58.26
26697;BME280;14312;52.614;13.496;2022-09-09T06:58:08;100490.34;;;21.27;58.11
26697;BME280;14312;52.614;13.496;2022-09-09T07:01:05;100490.19;;;21.32;57.86
26697;BME280;14312;52.614;13.496;2022-09-09T07:03:53;100488.13;;;21.29;57.94
26697;BME280;14312;52.614;13.496;2022-09-09T07:06:42;100491.81;;;21.33;57.65
26697;BME280;14312;52.614;13.496;2022-09-09T07:09:31;100485.75;;;21.36;57.92
26697;BME280;14312;52.614;13.496;2022-09-09T07:12:17;100494.84;;;21.40;57.67
26697;BME280;14312;52.614;13.496;2022-09-09T07:15:03;100486.09;;;21.43;57.82
26697;BME280;14312;52.614;13.496;2022-09-09T07:17:49;100489.75;;;21.47;57.82
26697;BME280;14312;52.614;13.496;2022-09-09T07:20:35;100478.28;;;21.51;58.16
26697;BME280;14312;52.614;13.496;2022-09-09T07:23:21;100487.06;;;21.56;58.29
26697;BME280;14312;52.614;13.496;2022-09-09T07:26:15;100477.50;;;21.67;57.71
26697;BME280;14312;52.614;13.496;2022-09-09T07:29:01;100486.94;;;21.70;57.72
26697;BME280;14312;52.614;13.496;2022-09-09T07:31:47;100485.66;;;21.76;57.59
26697;BME280;14312;52.614;13.496;2022-09-09T07:34:33;100477.38;;;21.81;57.85
26697;BME280;14312;52.614;13.496;2022-09-09T07:37:19;100478.34;;;21.85;57.97
26697;BME280;14312;52.614;13.496;2022-09-09T07:40:05;100485.19;;;21.91;57.99
26697;BME280;14312;52.614;13.496;2022-09-09T07:42:51;100482.19;;;22.01;57.68
26697;BME280;14312;52.614;13.496;2022-09-09T07:45:37;100482.03;;;22.06;57.64
26697;BME280;14312;52.614;13.496;2022-09-09T07:48:22;100488.25;;;22.15;57.78
26697;BME280;14312;52.614;13.496;2022-09-09T07:51:11;100483.44;;;22.30;57.39
26697;BME280;14312;52.614;13.496;2022-09-09T07:54:00;100497.16;;;22.42;57.06
26697;BME280;14312;52.614;13.496;2022-09-09T07:56:47;100485.19;;;22.43;57.32
26697;BME280;14312;52.614;13.496;2022-09-09T07:59:33;100494.28;;;22.47;57.39
26697;BME280;14312;52.614;13.496;2022-09-09T08:02:19;100492.19;;;22.52;57.31
26697;BME280;14312;52.614;13.496;2022-09-09T08:05:04;100489.63;;;22.56;57.17
26697;BME280;14312;52.614;13.496;2022-09-09T08:07:51;100493.13;;;22.65;57.09
26697;BME280;14312;52.614;13.496;2022-09-09T08:10:37;100492.94;;;22.79;56.83
26697;BME280;14312;52.614;13.496;2022-09-09T08:13:23;100490.66;;;22.89;56.34
26697;BME280;14312;52.614;13.496;2022-09-09T08:16:14;100501.19;;;22.99;56.34
26697;BME280;14312;52.614;13.496;2022-09-09T08:19:00;100501.47;;;23.07;55.78
26697;BME280;14312;52.614;13.496;2022-09-09T08:21:46;100511.03;;;23.13;55.76
26697;BME280;14312;52.614;13.496;2022-09-09T08:24:32;100503.16;;;23.20;55.78
26697;BME280;14312;52.614;13.496;2022-09-09T08:27:17;100500.09;;;23.30;55.44
26697;BME280;14312;52.614;13.496;2022-09-09T08:30:04;100505.81;;;23.37;55.46
26697;BME280;14312;52.614;13.496;2022-09-09T08:32:50;100505.41;;;23.47;55.24
26697;BME280;14312;52.614;13.496;2022-09-09T08:35:36;100501.59;;;23.48;54.84
26697;BME280;14312;52.614;13.496;2022-09-09T08:38:23;100513.28;;;23.49;55.06
26697;BME280;14312;52.614;13.496;2022-09-09T08:44:10;100506.94;;;23.65;54.93
26697;BME280;14312;52.614;13.496;2022-09-09T08:47:18;100503.63;;;23.80;54.71
26697;BME280;14312;52.614;13.496;2022-09-09T08:50:25;100499.38;;;23.92;54.47
26697;BME280;14312;52.614;13.496;2022-09-09T08:53:27;100511.34;;;23.99;52.99
26697;BME280;14312;52.614;13.496;2022-09-09T08:56:22;100507.81;;;23.99;53.89
26697;BME280;14312;52.614;13.496;2022-09-09T08:59:11;100511.72;;;24.10;53.85
26697;BME280;14312;52.614;13.496;2022-09-09T09:02:14;100518.41;;;24.21;53.44
26697;BME280;14312;52.614;13.496;2022-09-09T09:05:23;100506.16;;;24.27;52.96
26697;BME280;14312;52.614;13.496;2022-09-09T09:08:20;100508.19;;;24.30;53.10
26697;BME280;14312;52.614;13.496;2022-09-09T09:11:09;100508.81;;;24.36;53.08
26697;BME280;14312;52.614;13.496;2022-09-09T09:14:03;100511.44;;;24.44;52.54
26697;BME280;14312;52.614;13.496;2022-09-09T09:19:45;100508.50;;;24.49;52.82
26697;BME280;14312;52.614;13.496;2022-09-09T09:25:35;100515.91;;;24.61;52.71
26697;BME280;14312;52.614;13.496;2022-09-09T09:28:26;100508.31;;;24.67;52.46
26697;BME280;14312;52.614;13.496;2022-09-09T09:31:12;100513.09;;;24.70;52.57
26697;BME280;14312;52.614;13.496;2022-09-09T09:33:59;100511.75;;;24.76;52.12
26697;BME280;14312;52.614;13.496;2022-09-09T09:37:16;100513.69;;;24.87;52.53
26697;BME280;14312;52.614;13.496;2022-09-09T09:40:16;100513.84;;;24.91;52.33
26697;BME280;14312;52.614;13.496;2022-09-09T09:43:03;100510.22;;;24.99;52.06
26697;BME280;14312;52.614;13.496;2022-09-09T09:45:54;100507.28;;;25.04;51.51
26697;BME280;14312;52.614;13.496;2022-09-09T09:48:40;100508.97;;;25.09;52.15
26697;BME280;14312;52.614;13.496;2022-09-09T09:51:28;100510.94;;;25.20;51.50
26697;BME280;14312;52.614;13.496;2022-09-09T09:57:12;100515.25;;;25.33;51.58
26697;BME280;14312;52.614;13.496;2022-09-09T10:00:13;100507.03;;;25.46;51.56
26697;BME280;14312;52.614;13.496;2022-09-09T10:03:00;100513.84;;;25.52;51.60
26697;BME280;14312;52.614;13.496;2022-09-09T10:05:46;100516.03;;;25.58;51.09
26697;BME280;14312;52.614;13.496;2022-09-09T10:08:43;100517.84;;;25.66;51.07
26697;BME280;14312;52.614;13.496;2022-09-09T10:11:49;100516.13;;;25.74;50.67
26697;BME280;14312;52.614;13.496;2022-09-09T10:14:51;100511.78;;;25.85;50.72
26697;BME280;14312;52.614;13.496;2022-09-09T10:21:20;100516.63;;;26.04;49.90
26697;BME280;14312;52.614;13.496;2022-09-09T10:24:30;100501.47;;;26.06;50.68
26697;BME280;14312;52.614;13.496;2022-09-09T10:30:54;100508.47;;;26.20;48.51
26697;BME280;14312;52.614;13.496;2022-09-09T10:34:11;100511.00;;;26.25;49.29
26697;BME280;14312;52.614;13.496;2022-09-09T10:37:02;100502.19;;;26.31;48.96
26697;BME280;14312;52.614;13.496;2022-09-09T10:39:59;100505.22;;;26.42;49.03
26697;BME280;14312;52.614;13.496;2022-09-09T10:42:50;100503.91;;;26.51;48.08
26697;BME280;14312;52.614;13.496;2022-09-09T10:45:44;100516.47;;;26.68;47.77
26697;BME280;14312;52.614;13.496;2022-09-09T10:52:24;100513.31;;;26.82;48.09
26697;BME280;14312;52.614;13.496;2022-09-09T10:55:19;100519.09;;;26.93;47.06
26697;BME280;14312;52.614;13.496;2022-09-09T10:58:05;100513.63;;;26.93;47.06
26697;BME280;14312;52.614;13.496;2022-09-09T11:01:01;100515.34;;;27.01;47.01
26697;BME280;14312;52.614;13.496;2022-09-09T11:03:57;100510.00;;;27.04;47.01
26697;BME280;14312;52.614;13.496;2022-09-09T11:06:51;100507.06;;;27.13;46.85
26697;BME280;14312;52.614;13.496;2022-09-09T11:09:49;100511.13;;;27.19;46.66
26697;BME280;14312;52.614;13.496;2022-09-09T11:12:39;100518.53;;;27.18;46.27
26697;BME280;14312;52.614;13.496;2022-09-09T11:15:36;100513.59;;;27.24;46.41
26697;BME280;14312;52.614;13.496;2022-09-09T11:18:24;100508.22;;;27.27;45.80
26697;BME280;14312;52.614;13.496;2022-09-09T11:21:17;100509.00;;;27.28;45.93
26697;BME280;14312;52.614;13.496;2022-09-09T11:24:16;100505.25;;;27.36;44.68
26697;BME280;14312;52.614;13.496;2022-09-09T11:30:32;100513.28;;;27.45;46.55
26697;BME280;14312;52.614;13.496;2022-09-09T11:33:55;100505.72;;;27.54;46.36
26697;BME280;14312;52.614;13.496;2022-09-09T11:37:00;100513.72;;;27.62;46.22
26697;BME280;14312;52.614;13.496;2022-09-09T11:42:47;100514.91;;;27.81;45.28
26697;BME280;14312;52.614;13.496;2022-09-09T11:45:35;100511.16;;;27.89;45.11
26697;BME280;14312;52.614;13.496;2022-09-09T11:48:29;100502.66;;;27.94;45.32
26697;BME280;14312;52.614;13.496;2022-09-09T11:54:28;100506.41;;;28.05;44.53
26697;BME280;14312;52.614;13.496;2022-09-09T11:57:36;100499.84;;;28.10;45.51
26697;BME280;14312;52.614;13.496;2022-09-09T12:03:40;100490.69;;;28.21;43.69
26697;BME280;14312;52.614;13.496;2022-09-09T12:06:31;100490.00;;;28.24;44.91
26697;BME280;14312;52.614;13.496;2022-09-09T12:12:25;100470.84;;;28.47;43.48
26697;BME280;14312;52.614;13.496;2022-09-09T12:17:58;100472.59;;;28.59;43.35
26697;BME280;14312;52.614;13.496;2022-09-09T12:20:57;100472.00;;;28.69;43.90
26697;BME280;14312;52.614;13.496;2022-09-09T12:24:03;100478.47;;;28.80;42.89
26697;BME280;14312;52.614;13.496;2022-09-09T12:27:07;100466.78;;;28.83;43.41
26697;BME280;14312;52.614;13.496;2022-09-09T12:30:12;100467.03;;;28.97;41.98
26697;BME280;14312;52.614;13.496;2022-09-09T12:33:33;100470.72;;;29.08;43.15
26697;BME280;14312;52.614;13.496;2022-09-09T12:36:29;100460.16;;;29.10;42.16
26697;BME280;14312;52.614;13.496;2022-09-09T12:39:44;100461.84;;;29.18;42.24
26697;BME280;14312;52.614;13.496;2022-09-09T12:42:32;100457.09;;;29.15;42.99
26697;BME280;14312;52.614;13.496;2022-09-09T12:45:23;100460.38;;;29.25;41.78
26697;BME280;14312;52.614;13.496;2022-09-09T12:48:11;100450.97;;;29.26;41.62
26697;BME280;14312;52.614;13.496;2022-09-09T12:50:57;100455.31;;;29.27;41.64
26697;BME280;14312;52.614;13.496;2022-09-09T12:53:44;100453.38;;;29.27;42.01
26697;BME280;14312;52.614;13.496;2022-09-09T12:56:32;100451.81;;;29.30;41.34
26697;BME280;14312;52.614;13.496;2022-09-09T12:59:37;100450.22;;;29.29;40.70
26697;BME280;14312;52.614;13.496;2022-09-09T13:02:26;100451.00;;;29.29;41.68
26697;BME280;14312;52.614;13.496;2022-09-09T13:05:17;100452.88;;;29.21;39.82
26697;BME280;14312;52.614;13.496;2022-09-09T13:08:05;100456.47;;;29.26;41.04
26697;BME280;14312;52.614;13.496;2022-09-09T13:11:00;100458.88;;;29.31;40.67
26697;BME280;14312;52.614;13.496;2022-09-09T13:13:54;100450.22;;;29.29;40.70
26697;BME280;14312;52.614;13.496;2022-09-09T13:16:41;100457.19;;;29.23;40.43
26697;BME280;14312;52.614;13.496;2022-09-09T13:19:30;100463.47;;;29.23;40.48
26697;BME280;14312;52.614;13.496;2022-09-09T13:22:34;100455.72;;;29.29;39.80
26697;BME280;14312;52.614;13.496;2022-09-09T13:25:27;100453.63;;;29.18;39.51
26697;BME280;14312;52.614;13.496;2022-09-09T13:28:23;100452.47;;;29.19;39.58
26697;BME280;14312;52.614;13.496;2022-09-09T13:31:30;100449.63;;;29.12;40.03
26697;BME280;14312;52.614;13.496;2022-09-09T13:34:32;100448.31;;;29.06;40.13
26697;BME280;14312;52.614;13.496;2022-09-09T13:40:18;100438.00;;;28.96;40.24
26697;BME280;14312;52.614;13.496;2022-09-09T13:43:04;100430.09;;;28.91;40.20
26697;BME280;14312;52.614;13.496;2022-09-09T13:45:59;100435.50;;;28.88;40.82
26697;BME280;14312;52.614;13.496;2022-09-09T13:48:57;100425.63;;;28.83;40.89
26697;BME280;14312;52.614;13.496;2022-09-09T13:51:46;100431.84;;;28.80;41.43
26697;BME280;14312;52.614;13.496;2022-09-09T13:54:32;100424.38;;;28.77;41.25
26697;BME280;14312;52.614;13.496;2022-09-09T14:00:06;100421.41;;;28.89;41.53
26697;BME280;14312;52.614;13.496;2022-09-09T14:02:54;100437.34;;;29.06;41.85
26697;BME280;14312;52.614;13.496;2022-09-09T14:05:44;100435.91;;;29.39;42.02
26697;BME280;14312;52.614;13.496;2022-09-09T14:08:30;100432.06;;;29.77;41.54
26697;BME280;14312;52.614;13.496;2022-09-09T14:11:22;100429.03;;;30.19;41.67
26697;BME280;14312;52.614;13.496;2022-09-09T14:14:08;100430.69;;;30.67;41.63
26697;BME280;14312;52.614;13.496;2022-09-09T14:16:54;100425.56;;;31.17;39.10
26697;BME280;14312;52.614;13.496;2022-09-09T14:19:40;100427.34;;;31.54;37.83
26697;BME280;14312;52.614;13.496;2022-09-09T14:22:25;100429.81;;;31.83;36.80
26697;BME280;14312;52.614;13.496;2022-09-09T14:25:11;100437.00;;;32.09;35.39
26697;BME280;14312;52.614;13.496;2022-09-09T14:27:59;100425.25;;;32.23;35.97
26697;BME280;14312;52.614;13.496;2022-09-09T14:30:44;100426.06;;;32.31;35.31
26697;BME280;14312;52.614;13.496;2022-09-09T14:33:30;100424.09;;;32.49;35.08
26697;BME280;14312;52.614;13.496;2022-09-09T14:36:16;100415.81;;;32.59;34.84
26697;BME280;14312;52.614;13.496;2022-09-09T14:39:03;100414.66;;;32.71;34.26
26697;BME280;14312;52.614;13.496;2022-09-09T14:41:49;100422.94;;;32.68;33.41
26697;BME280;14312;52.614;13.496;2022-09-09T14:44:35;100419.38;;;32.67;33.06
26697;BME280;14312;52.614;13.496;2022-09-09T14:47:21;100424.47;;;32.51;33.40
26697;BME280;14312;52.614;13.496;2022-09-09T14:50:07;100416.97;;;32.30;33.25
26697;BME280;14312;52.614;13.496;2022-09-09T14:52:53;100417.34;;;32.14;33.29
26697;BME280;14312;52.614;13.496;2022-09-09T14:55:39;100415.31;;;31.90;33.87
26697;BME280;14312;52.614;13.496;2022-09-09T14:58:30;100419.56;;;31.73;34.39
26697;BME280;14312;52.614;13.496;2022-09-09T15:01:18;100426.63;;;31.64;35.33
26697;BME280;14312;52.614;13.496;2022-09-09T15:04:05;100431.31;;;31.60;35.03
26697;BME280;14312;52.614;13.496;2022-09-09T15:06:51;100426.63;;;31.60;35.21
26697;BME280;14312;52.614;13.496;2022-09-09T15:09:38;100418.34;;;31.60;35.37
26697;BME280;14312;52.614;13.496;2022-09-09T15:12:24;100418.69;;;31.59;35.75
26697;BME280;14312;52.614;13.496;2022-09-09T15:15:10;100417.13;;;31.54;35.29
26697;BME280;14312;52.614;13.496;2022-09-09T15:17:56;100419.44;;;31.48;35.19
26697;BME280;14312;52.614;13.496;2022-09-09T15:20:46;100409.19;;;31.45;35.16
26697;BME280;14312;52.614;13.496;2022-09-09T15:23:33;100413.84;;;31.34;35.52
26697;BME280;14312;52.614;13.496;2022-09-09T15:26:19;100414.19;;;31.22;35.96
26697;BME280;14312;52.614;13.496;2022-09-09T15:29:06;100411.38;;;31.15;35.64
26697;BME280;14312;52.614;13.496;2022-09-09T15:31:54;100411.75;;;31.10;35.67
26697;BME280;14312;52.614;13.496;2022-09-09T15:34:41;100415.28;;;31.07;36.74
26697;BME280;14312;52.614;13.496;2022-09-09T15:37:27;100428.75;;;31.19;37.09
26697;BME280;14312;52.614;13.496;2022-09-09T15:40:13;100417.84;;;31.40;37.25
26697;BME280;14312;52.614;13.496;2022-09-09T15:42:59;100410.91;;;31.68;37.12